Dalad Qi, China
Current Conditions -  °F | °C
As of 3:00 PM on Sunday 26 Oct 2014 (Local Time) from ZBHH Reporting Station
Clear Clear  
Wind Chill: 57°   Ceiling: Unl
Heat Index: 57°   Visibility: 6mi
Dew Point: 16°   Wind: 9mph
Humidity: 20%   Direction: 80°E
Pressure: 30.3"   Gusts: NA
Location:  40.39°N, 110.03°E
Report Text: ZBHH 260700Z 08004MPS 030V140 CAVOK 14/M09 Q1026 NOSIG
Loading
Personal Weather Stations






























Interactive Weather Map
Tropical Storm Tracking
New forecast layout! Learn more

10-Day Weather Forecast

Advertisements
Track Severe Weather on mobile